sensor_id;sensor_type;location;lat;lon;timestamp;P1;durP1;ratioP1;P2;durP2;ratioP2
49582;SDS011;36329;48.816;44.624;2022-09-09T00:02:44;11.3;;;3.2;;
49582;SDS011;36329;48.816;44.624;2022-09-09T00:05:53;8.6;;;3.2;;
49582;SDS011;36329;48.816;44.624;2022-09-09T00:09:02;6.5;;;2.9;;
49582;SDS011;36329;48.816;44.624;2022-09-09T00:12:10;5.1;;;3.3;;
49582;SDS011;36329;48.816;44.624;2022-09-09T00:15:14;5.7;;;3.1;;
49582;SDS011;36329;48.816;44.624;2022-09-09T00:18:22;8.6;;;3.1;;
49582;SDS011;36329;48.816;44.624;2022-09-09T00:21:31;7.1;;;3.2;;
49582;SDS011;36329;48.816;44.624;2022-09-09T00:24:38;6.3;;;3.3;;
49582;SDS011;36329;48.816;44.624;2022-09-09T00:27:45;9.4;;;2.9;;
49582;SDS011;36329;48.816;44.624;2022-09-09T00:30:49;8.4;;;3;;
49582;SDS011;36329;48.816;44.624;2022-09-09T00:33:50;8;;;2.9;;
49582;SDS011;36329;48.816;44.624;2022-09-09T00:36:54;8.8;;;2.9;;
49582;SDS011;36329;48.816;44.624;2022-09-09T00:39:58;5.7;;;2.7;;
49582;SDS011;36329;48.816;44.624;2022-09-09T00:43:07;5.7;;;2.6;;
49582;SDS011;36329;48.816;44.624;2022-09-09T00:49:56;5.8;;;3;;
49582;SDS011;36329;48.816;44.624;2022-09-09T00:53:09;7.5;;;2.7;;
49582;SDS011;36329;48.816;44.624;2022-09-09T00:56:19;7.6;;;2.9;;
49582;SDS011;36329;48.816;44.624;2022-09-09T00:59:26;6.8;;;2.7;;
49582;SDS011;36329;48.816;44.624;2022-09-09T01:02:35;4.3;;;2.7;;
49582;SDS011;36329;48.816;44.624;2022-09-09T01:05:46;8.4;;;2.9;;
49582;SDS011;36329;48.816;44.624;2022-09-09T01:08:58;6.9;;;3;;
49582;SDS011;36329;48.816;44.624;2022-09-09T01:12:09;7.5;;;2.8;;
49582;SDS011;36329;48.816;44.624;2022-09-09T01:15:17;8.8;;;3.2;;
49582;SDS011;36329;48.816;44.624;2022-09-09T01:18:25;5.5;;;3;;
49582;SDS011;36329;48.816;44.624;2022-09-09T01:21:34;6.6;;;3;;
49582;SDS011;36329;48.816;44.624;2022-09-09T01:25:01;4.5;;;2.8;;
49582;SDS011;36329;48.816;44.624;2022-09-09T01:28:13;6;;;3.2;;
49582;SDS011;36329;48.816;44.624;2022-09-09T01:31:22;8.4;;;2.9;;
49582;SDS011;36329;48.816;44.624;2022-09-09T01:34:30;6.3;;;2.9;;
49582;SDS011;36329;48.816;44.624;2022-09-09T01:37:36;6.2;;;2.7;;
49582;SDS011;36329;48.816;44.624;2022-09-09T01:40:38;6;;;2.9;;
49582;SDS011;36329;48.816;44.624;2022-09-09T01:43:40;8.3;;;3.1;;
49582;SDS011;36329;48.816;44.624;2022-09-09T01:46:41;5.7;;;2.8;;
49582;SDS011;36329;48.816;44.624;2022-09-09T01:49:43;5.1;;;3;;
49582;SDS011;36329;48.816;44.624;2022-09-09T01:52:45;6.6;;;2.8;;
49582;SDS011;36329;48.816;44.624;2022-09-09T01:55:54;6.1;;;3.1;;
49582;SDS011;36329;48.816;44.624;2022-09-09T01:59:03;8.2;;;3.2;;
49582;SDS011;36329;48.816;44.624;2022-09-09T02:02:11;7.1;;;2.9;;
49582;SDS011;36329;48.816;44.624;2022-09-09T02:05:21;5.9;;;2.9;;
49582;SDS011;36329;48.816;44.624;2022-09-09T02:08:33;6.4;;;3;;
49582;SDS011;36329;48.816;44.624;2022-09-09T02:11:41;11.4;;;3.8;;
49582;SDS011;36329;48.816;44.624;2022-09-09T02:14:50;12.4;;;3.8;;
49582;SDS011;36329;48.816;44.624;2022-09-09T02:17:57;10.7;;;3.9;;
49582;SDS011;36329;48.816;44.624;2022-09-09T02:21:02;8.9;;;3.9;;
49582;SDS011;36329;48.816;44.624;2022-09-09T02:24:05;6.9;;;4;;
49582;SDS011;36329;48.816;44.624;2022-09-09T02:27:09;10.3;;;4.1;;
49582;SDS011;36329;48.816;44.624;2022-09-09T02:30:12;9.6;;;4.4;;
49582;SDS011;36329;48.816;44.624;2022-09-09T02:33:14;8.3;;;4;;
49582;SDS011;36329;48.816;44.624;2022-09-09T02:36:15;11;;;4;;
49582;SDS011;36329;48.816;44.624;2022-09-09T02:39:19;8.6;;;3.7;;
49582;SDS011;36329;48.816;44.624;2022-09-09T02:42:21;7.8;;;4.1;;
49582;SDS011;36329;48.816;44.624;2022-09-09T02:45:23;8.5;;;4;;
49582;SDS011;36329;48.816;44.624;2022-09-09T02:48:29;10.1;;;4.2;;
49582;SDS011;36329;48.816;44.624;2022-09-09T02:51:39;8.4;;;4.4;;
49582;SDS011;36329;48.816;44.624;2022-09-09T02:54:51;12.7;;;4.3;;
49582;SDS011;36329;48.816;44.624;2022-09-09T02:58:00;8.5;;;4.5;;
49582;SDS011;36329;48.816;44.624;2022-09-09T03:01:04;13.9;;;4.6;;
49582;SDS011;36329;48.816;44.624;2022-09-09T03:04:06;10.8;;;4.7;;
49582;SDS011;36329;48.816;44.624;2022-09-09T03:07:07;11.7;;;5;;
49582;SDS011;36329;48.816;44.624;2022-09-09T03:10:09;10.5;;;5.4;;
49582;SDS011;36329;48.816;44.624;2022-09-09T03:13:12;10.7;;;5.1;;
49582;SDS011;36329;48.816;44.624;2022-09-09T03:16:13;8.8;;;5.2;;
49582;SDS011;36329;48.816;44.624;2022-09-09T03:19:15;8.7;;;4.9;;
49582;SDS011;36329;48.816;44.624;2022-09-09T03:22:16;8.9;;;4.6;;
49582;SDS011;36329;48.816;44.624;2022-09-09T03:25:18;9.1;;;4.3;;
49582;SDS011;36329;48.816;44.624;2022-09-09T03:28:19;14.7;;;4.6;;
49582;SDS011;36329;48.816;44.624;2022-09-09T03:31:21;8.7;;;4.1;;
49582;SDS011;36329;48.816;44.624;2022-09-09T03:34:23;8.1;;;3.5;;
49582;SDS011;36329;48.816;44.624;2022-09-09T03:37:24;12.2;;;3.9;;
49582;SDS011;36329;48.816;44.624;2022-09-09T03:40:26;7.2;;;3.6;;
49582;SDS011;36329;48.816;44.624;2022-09-09T03:43:28;9.1;;;3.6;;
49582;SDS011;36329;48.816;44.624;2022-09-09T03:46:30;8.2;;;3.5;;
49582;SDS011;36329;48.816;44.624;2022-09-09T03:49:31;7.2;;;3.1;;
49582;SDS011;36329;48.816;44.624;2022-09-09T03:52:34;5.2;;;2.9;;
49582;SDS011;36329;48.816;44.624;2022-09-09T03:55:35;6.2;;;2.3;;
49582;SDS011;36329;48.816;44.624;2022-09-09T03:58:38;7;;;3.4;;
49582;SDS011;36329;48.816;44.624;2022-09-09T04:01:40;6.4;;;2.7;;
49582;SDS011;36329;48.816;44.624;2022-09-09T04:04:41;6.5;;;2.5;;
49582;SDS011;36329;48.816;44.624;2022-09-09T04:07:43;7.8;;;2.5;;
49582;SDS011;36329;48.816;44.624;2022-09-09T04:10:45;6.3;;;3;;
49582;SDS011;36329;48.816;44.624;2022-09-09T04:13:47;11.9;;;2.7;;
49582;SDS011;36329;48.816;44.624;2022-09-09T04:16:48;6.2;;;2.6;;
49582;SDS011;36329;48.816;44.624;2022-09-09T04:19:50;4.7;;;2.2;;
49582;SDS011;36329;48.816;44.624;2022-09-09T04:22:51;7.5;;;2.4;;
49582;SDS011;36329;48.816;44.624;2022-09-09T04:25:53;7.9;;;3.2;;
49582;SDS011;36329;48.816;44.624;2022-09-09T04:28:56;10.7;;;3.9;;
49582;SDS011;36329;48.816;44.624;2022-09-09T04:31:57;9.4;;;3.6;;
49582;SDS011;36329;48.816;44.624;2022-09-09T04:34:59;17.9;;;5.4;;
49582;SDS011;36329;48.816;44.624;2022-09-09T04:38:00;16.2;;;4.4;;
49582;SDS011;36329;48.816;44.624;2022-09-09T04:41:02;21.5;;;5;;
49582;SDS011;36329;48.816;44.624;2022-09-09T04:44:04;14.7;;;4.7;;
49582;SDS011;36329;48.816;44.624;2022-09-09T04:47:05;22.6;;;5.4;;
49582;SDS011;36329;48.816;44.624;2022-09-09T04:50:07;17.7;;;5;;
49582;SDS011;36329;48.816;44.624;2022-09-09T04:53:10;17.7;;;5.2;;
49582;SDS011;36329;48.816;44.624;2022-09-09T04:56:12;23;;;7.4;;
49582;SDS011;36329;48.816;44.624;2022-09-09T04:59:15;22;;;5.8;;
49582;SDS011;36329;48.816;44.624;2022-09-09T05:02:17;24.6;;;6.4;;
49582;SDS011;36329;48.816;44.624;2022-09-09T05:05:18;20.3;;;5.4;;
49582;SDS011;36329;48.816;44.624;2022-09-09T05:08:20;16.9;;;5.3;;
49582;SDS011;36329;48.816;44.624;2022-09-09T05:11:24;18.3;;;5.6;;
49582;SDS011;36329;48.816;44.624;2022-09-09T05:14:27;13.4;;;4.9;;
49582;SDS011;36329;48.816;44.624;2022-09-09T05:17:29;8.8;;;4.6;;
49582;SDS011;36329;48.816;44.624;2022-09-09T05:20:31;11.7;;;5.2;;
49582;SDS011;36329;48.816;44.624;2022-09-09T05:23:33;9.9;;;4.6;;
49582;SDS011;36329;48.816;44.624;2022-09-09T05:26:35;10.6;;;5.3;;
49582;SDS011;36329;48.816;44.624;2022-09-09T05:29:36;13.4;;;4.6;;
49582;SDS011;36329;48.816;44.624;2022-09-09T05:32:38;9.3;;;4.9;;
49582;SDS011;36329;48.816;44.624;2022-09-09T05:35:39;8.5;;;3.8;;
49582;SDS011;36329;48.816;44.624;2022-09-09T05:38:41;7.6;;;4.8;;
49582;SDS011;36329;48.816;44.624;2022-09-09T05:41:43;10.5;;;4.9;;
49582;SDS011;36329;48.816;44.624;2022-09-09T05:44:44;11.5;;;5;;
49582;SDS011;36329;48.816;44.624;2022-09-09T05:47:50;13.9;;;5.3;;
49582;SDS011;36329;48.816;44.624;2022-09-09T05:50:53;8.9;;;5;;
49582;SDS011;36329;48.816;44.624;2022-09-09T05:53:55;11.4;;;5;;
49582;SDS011;36329;48.816;44.624;2022-09-09T05:56:57;12.1;;;4.8;;
49582;SDS011;36329;48.816;44.624;2022-09-09T05:59:58;9.3;;;5;;
49582;SDS011;36329;48.816;44.624;2022-09-09T06:03:00;9.2;;;4.9;;
49582;SDS011;36329;48.816;44.624;2022-09-09T06:06:03;9.7;;;4.8;;
49582;SDS011;36329;48.816;44.624;2022-09-09T06:09:06;12.3;;;4.9;;
49582;SDS011;36329;48.816;44.624;2022-09-09T06:12:08;9.8;;;4.3;;
49582;SDS011;36329;48.816;44.624;2022-09-09T06:15:10;10.5;;;4.4;;
49582;SDS011;36329;48.816;44.624;2022-09-09T06:18:12;9.1;;;4.2;;
49582;SDS011;36329;48.816;44.624;2022-09-09T06:21:15;11;;;4.4;;
49582;SDS011;36329;48.816;44.624;2022-09-09T06:24:18;9.1;;;4.7;;
49582;SDS011;36329;48.816;44.624;2022-09-09T06:27:20;8.6;;;4.4;;
49582;SDS011;36329;48.816;44.624;2022-09-09T06:30:21;8.7;;;4.1;;
49582;SDS011;36329;48.816;44.624;2022-09-09T06:33:23;7.6;;;4.6;;
49582;SDS011;36329;48.816;44.624;2022-09-09T06:36:26;8.7;;;4.5;;
49582;SDS011;36329;48.816;44.624;2022-09-09T06:39:28;11.4;;;4.4;;
49582;SDS011;36329;48.816;44.624;2022-09-09T06:42:30;18.2;;;6.1;;
49582;SDS011;36329;48.816;44.624;2022-09-09T06:45:32;10.7;;;5.2;;
49582;SDS011;36329;48.816;44.624;2022-09-09T06:48:33;8.2;;;4.1;;
49582;SDS011;36329;48.816;44.624;2022-09-09T06:51:36;10.3;;;5.1;;
49582;SDS011;36329;48.816;44.624;2022-09-09T06:54:39;14.3;;;4.7;;
49582;SDS011;36329;48.816;44.624;2022-09-09T06:57:41;7.7;;;4.4;;
49582;SDS011;36329;48.816;44.624;2022-09-09T07:00:43;11.3;;;5.9;;
49582;SDS011;36329;48.816;44.624;2022-09-09T07:03:46;7;;;4.8;;
49582;SDS011;36329;48.816;44.624;2022-09-09T07:06:49;8.6;;;4.6;;
49582;SDS011;36329;48.816;44.624;2022-09-09T07:09:50;6.1;;;4;;
49582;SDS011;36329;48.816;44.624;2022-09-09T07:12:52;7.2;;;3.9;;
49582;SDS011;36329;48.816;44.624;2022-09-09T07:15:54;9.9;;;4.4;;
49582;SDS011;36329;48.816;44.624;2022-09-09T07:18:55;9.8;;;3.9;;
49582;SDS011;36329;48.816;44.624;2022-09-09T07:21:57;7.5;;;3.8;;
49582;SDS011;36329;48.816;44.624;2022-09-09T07:25:00;6;;;3.6;;
49582;SDS011;36329;48.816;44.624;2022-09-09T07:28:01;6.2;;;3.2;;
49582;SDS011;36329;48.816;44.624;2022-09-09T07:31:04;7.3;;;4;;
49582;SDS011;36329;48.816;44.624;2022-09-09T07:34:07;6.2;;;3.2;;
49582;SDS011;36329;48.816;44.624;2022-09-09T07:37:08;7.8;;;2.9;;
49582;SDS011;36329;48.816;44.624;2022-09-09T07:40:10;11.6;;;2.8;;
49582;SDS011;36329;48.816;44.624;2022-09-09T07:43:11;5.1;;;2.5;;
49582;SDS011;36329;48.816;44.624;2022-09-09T07:46:14;5.2;;;2.7;;
49582;SDS011;36329;48.816;44.624;2022-09-09T07:49:17;8.6;;;3.3;;
49582;SDS011;36329;48.816;44.624;2022-09-09T07:52:19;7.4;;;3;;
49582;SDS011;36329;48.816;44.624;2022-09-09T07:55:21;6.8;;;2.5;;
49582;SDS011;36329;48.816;44.624;2022-09-09T07:58:23;5.5;;;2.3;;
49582;SDS011;36329;48.816;44.624;2022-09-09T08:01:26;7;;;2.4;;
49582;SDS011;36329;48.816;44.624;2022-09-09T08:04:29;5.8;;;2.4;;
49582;SDS011;36329;48.816;44.624;2022-09-09T08:07:30;4.8;;;2.1;;
49582;SDS011;36329;48.816;44.624;2022-09-09T08:10:32;5.5;;;2.1;;
49582;SDS011;36329;48.816;44.624;2022-09-09T08:13:35;3.5;;;2;;
49582;SDS011;36329;48.816;44.624;2022-09-09T08:16:37;4.6;;;2.1;;
49582;SDS011;36329;48.816;44.624;2022-09-09T08:19:41;7.2;;;2.2;;
49582;SDS011;36329;48.816;44.624;2022-09-09T08:22:42;4.3;;;2.2;;
49582;SDS011;36329;48.816;44.624;2022-09-09T08:25:44;4;;;2.1;;
49582;SDS011;36329;48.816;44.624;2022-09-09T08:28:45;5.3;;;2.1;;
49582;SDS011;36329;48.816;44.624;2022-09-09T08:31:47;6.1;;;1.8;;
49582;SDS011;36329;48.816;44.624;2022-09-09T08:34:51;3.5;;;1.7;;
49582;SDS011;36329;48.816;44.624;2022-09-09T08:37:53;4.1;;;1.7;;
49582;SDS011;36329;48.816;44.624;2022-09-09T08:40:57;2.9;;;1.7;;
49582;SDS011;36329;48.816;44.624;2022-09-09T08:44:06;3.5;;;1.6;;
49582;SDS011;36329;48.816;44.624;2022-09-09T08:47:11;3.3;;;1.5;;
49582;SDS011;36329;48.816;44.624;2022-09-09T08:50:22;4;;;1.6;;
49582;SDS011;36329;48.816;44.624;2022-09-09T08:53:27;4.9;;;1.4;;
49582;SDS011;36329;48.816;44.624;2022-09-09T08:56:35;4.4;;;1.6;;
49582;SDS011;36329;48.816;44.624;2022-09-09T08:59:37;5.8;;;2;;
49582;SDS011;36329;48.816;44.624;2022-09-09T09:02:39;3;;;1.5;;
49582;SDS011;36329;48.816;44.624;2022-09-09T09:05:54;4.8;;;1.6;;
49582;SDS011;36329;48.816;44.624;2022-09-09T09:09:05;6.5;;;1.5;;
49582;SDS011;36329;48.816;44.624;2022-09-09T09:12:14;3.4;;;1.3;;
49582;SDS011;36329;48.816;44.624;2022-09-09T09:15:19;3.3;;;1.3;;
49582;SDS011;36329;48.816;44.624;2022-09-09T09:18:24;2.5;;;1.1;;
49582;SDS011;36329;48.816;44.624;2022-09-09T09:21:28;2.4;;;1.3;;
49582;SDS011;36329;48.816;44.624;2022-09-09T09:24:39;3.8;;;1.4;;
49582;SDS011;36329;48.816;44.624;2022-09-09T09:27:49;3;;;1.1;;
49582;SDS011;36329;48.816;44.624;2022-09-09T09:30:59;3.7;;;1.1;;
49582;SDS011;36329;48.816;44.624;2022-09-09T09:34:07;4.8;;;1.4;;
49582;SDS011;36329;48.816;44.624;2022-09-09T09:37:12;4.3;;;1.2;;
49582;SDS011;36329;48.816;44.624;2022-09-09T09:40:19;4;;;1.5;;
49582;SDS011;36329;48.816;44.624;2022-09-09T09:43:23;5.6;;;1.4;;
49582;SDS011;36329;48.816;44.624;2022-09-09T09:46:28;6.3;;;1.2;;
49582;SDS011;36329;48.816;44.624;2022-09-09T09:49:30;3.2;;;1.1;;
49582;SDS011;36329;48.816;44.624;2022-09-09T09:52:31;8.9;;;1.7;;
49582;SDS011;36329;48.816;44.624;2022-09-09T09:55:34;5.6;;;1.3;;
49582;SDS011;36329;48.816;44.624;2022-09-09T09:58:48;4.6;;;1.4;;
49582;SDS011;36329;48.816;44.624;2022-09-09T10:01:52;3.8;;;1;;
49582;SDS011;36329;48.816;44.624;2022-09-09T10:05:00;9.3;;;1.4;;
49582;SDS011;36329;48.816;44.624;2022-09-09T10:08:03;5.9;;;2;;
49582;SDS011;36329;48.816;44.624;2022-09-09T10:11:12;4.4;;;1.6;;
49582;SDS011;36329;48.816;44.624;2022-09-09T10:14:26;5.1;;;1.8;;
49582;SDS011;36329;48.816;44.624;2022-09-09T10:17:37;3.2;;;1.6;;
49582;SDS011;36329;48.816;44.624;2022-09-09T10:20:51;9.2;;;1.9;;
49582;SDS011;36329;48.816;44.624;2022-09-09T10:24:07;7.3;;;1.4;;
49582;SDS011;36329;48.816;44.624;2022-09-09T10:27:19;4.4;;;1.2;;
49582;SDS011;36329;48.816;44.624;2022-09-09T10:30:27;4.1;;;1.1;;
49582;SDS011;36329;48.816;44.624;2022-09-09T10:33:37;5.6;;;1.6;;
49582;SDS011;36329;48.816;44.624;2022-09-09T10:36:47;7;;;1.3;;
49582;SDS011;36329;48.816;44.624;2022-09-09T10:39:51;4.1;;;1.4;;
49582;SDS011;36329;48.816;44.624;2022-09-09T10:43:04;17.3;;;2.3;;
49582;SDS011;36329;48.816;44.624;2022-09-09T10:46:14;6.1;;;2;;
49582;SDS011;36329;48.816;44.624;2022-09-09T10:49:27;6;;;1.8;;
49582;SDS011;36329;48.816;44.624;2022-09-09T10:52:40;4.9;;;1.7;;
49582;SDS011;36329;48.816;44.624;2022-09-09T10:55:52;6.3;;;1.8;;
49582;SDS011;36329;48.816;44.624;2022-09-09T10:58:59;6.2;;;1.4;;
49582;SDS011;36329;48.816;44.624;2022-09-09T11:05:27;7.6;;;2;;
49582;SDS011;36329;48.816;44.624;2022-09-09T11:08:32;7.4;;;1.6;;
49582;SDS011;36329;48.816;44.624;2022-09-09T11:11:36;5.8;;;1.8;;
49582;SDS011;36329;48.816;44.624;2022-09-09T11:14:44;5.6;;;1.6;;
49582;SDS011;36329;48.816;44.624;2022-09-09T11:17:49;3.4;;;1.4;;
49582;SDS011;36329;48.816;44.624;2022-09-09T11:20:56;4.5;;;1.3;;
49582;SDS011;36329;48.816;44.624;2022-09-09T11:24:02;6.3;;;1.9;;
49582;SDS011;36329;48.816;44.624;2022-09-09T11:27:09;3.9;;;1.1;;
49582;SDS011;36329;48.816;44.624;2022-09-09T11:30:17;3.8;;;1.2;;
49582;SDS011;36329;48.816;44.624;2022-09-09T11:33:30;6.4;;;1.4;;
49582;SDS011;36329;48.816;44.624;2022-09-09T11:36:45;2.8;;;1.1;;
49582;SDS011;36329;48.816;44.624;2022-09-09T11:40:00;37.6;;;4.6;;
49582;SDS011;36329;48.816;44.624;2022-09-09T11:43:11;8.9;;;1.8;;
49582;SDS011;36329;48.816;44.624;2022-09-09T11:46:15;6.5;;;1.5;;
49582;SDS011;36329;48.816;44.624;2022-09-09T11:49:26;4.7;;;1.4;;
49582;SDS011;36329;48.816;44.624;2022-09-09T11:52:36;5.9;;;1.7;;
49582;SDS011;36329;48.816;44.624;2022-09-09T11:55:39;4.5;;;1.1;;
49582;SDS011;36329;48.816;44.624;2022-09-09T11:58:42;3.7;;;1.2;;
49582;SDS011;36329;48.816;44.624;2022-09-09T12:01:45;4.9;;;1.2;;
49582;SDS011;36329;48.816;44.624;2022-09-09T12:04:55;5.4;;;1.3;;
49582;SDS011;36329;48.816;44.624;2022-09-09T12:08:01;6.4;;;1.5;;
49582;SDS011;36329;48.816;44.624;2022-09-09T12:11:03;4.9;;;1.2;;
49582;SDS011;36329;48.816;44.624;2022-09-09T12:17:36;4.3;;;1.1;;
49582;SDS011;36329;48.816;44.624;2022-09-09T12:20:50;3.3;;;1;;
49582;SDS011;36329;48.816;44.624;2022-09-09T12:23:57;4.4;;;1.3;;
49582;SDS011;36329;48.816;44.624;2022-09-09T12:27:06;2.3;;;1.1;;
49582;SDS011;36329;48.816;44.624;2022-09-09T12:30:14;17;;;1.8;;
49582;SDS011;36329;48.816;44.624;2022-09-09T12:33:17;8.7;;;1.6;;
49582;SDS011;36329;48.816;44.624;2022-09-09T12:36:21;7.6;;;1.4;;
49582;SDS011;36329;48.816;44.624;2022-09-09T12:39:29;5.4;;;1.4;;
49582;SDS011;36329;48.816;44.624;2022-09-09T12:42:39;5.6;;;1.5;;
49582;SDS011;36329;48.816;44.624;2022-09-09T12:45:41;4.7;;;1.2;;
49582;SDS011;36329;48.816;44.624;2022-09-09T12:48:44;8.3;;;1.2;;
49582;SDS011;36329;48.816;44.624;2022-09-09T12:51:45;8.8;;;1;;
49582;SDS011;36329;48.816;44.624;2022-09-09T12:54:47;9.5;;;1.4;;
49582;SDS011;36329;48.816;44.624;2022-09-09T12:57:49;7.2;;;1.3;;
49582;SDS011;36329;48.816;44.624;2022-09-09T13:00:57;5.9;;;1.2;;
49582;SDS011;36329;48.816;44.624;2022-09-09T13:04:00;3.5;;;1.2;;
49582;SDS011;36329;48.816;44.624;2022-09-09T13:07:06;2.9;;;1;;
49582;SDS011;36329;48.816;44.624;2022-09-09T13:10:10;3.3;;;1.2;;
49582;SDS011;36329;48.816;44.624;2022-09-09T13:13:13;3.1;;;1;;
49582;SDS011;36329;48.816;44.624;2022-09-09T13:16:19;8.8;;;1.7;;
49582;SDS011;36329;48.816;44.624;2022-09-09T13:19:22;6;;;1.6;;
49582;SDS011;36329;48.816;44.624;2022-09-09T13:22:28;5.5;;;1.3;;
49582;SDS011;36329;48.816;44.624;2022-09-09T13:25:32;6.5;;;1.3;;
49582;SDS011;36329;48.816;44.624;2022-09-09T13:28:34;4.1;;;1.2;;
49582;SDS011;36329;48.816;44.624;2022-09-09T13:31:36;3.1;;;1.3;;
49582;SDS011;36329;48.816;44.624;2022-09-09T13:34:38;11.6;;;1.6;;
49582;SDS011;36329;48.816;44.624;2022-09-09T13:37:39;8.5;;;1.6;;
49582;SDS011;36329;48.816;44.624;2022-09-09T13:43:54;6.1;;;1.3;;
49582;SDS011;36329;48.816;44.624;2022-09-09T13:47:00;6.2;;;1.5;;
49582;SDS011;36329;48.816;44.624;2022-09-09T13:50:15;7.1;;;1.7;;
49582;SDS011;36329;48.816;44.624;2022-09-09T13:53:20;5;;;1.5;;
49582;SDS011;36329;48.816;44.624;2022-09-09T13:56:22;4.1;;;1.3;;
49582;SDS011;36329;48.816;44.624;2022-09-09T13:59:23;7.3;;;1.4;;
49582;SDS011;36329;48.816;44.624;2022-09-09T14:02:25;3.7;;;1.4;;
49582;SDS011;36329;48.816;44.624;2022-09-09T14:05:26;5.9;;;1.2;;
49582;SDS011;36329;48.816;44.624;2022-09-09T14:08:28;7.5;;;2;;
49582;SDS011;36329;48.816;44.624;2022-09-09T14:11:30;4.2;;;1.5;;
49582;SDS011;36329;48.816;44.624;2022-09-09T14:14:32;3.9;;;1.7;;
49582;SDS011;36329;48.816;44.624;2022-09-09T14:17:34;3.4;;;1.3;;
49582;SDS011;36329;48.816;44.624;2022-09-09T14:20:35;4.3;;;1.2;;
49582;SDS011;36329;48.816;44.624;2022-09-09T14:23:37;3.4;;;1.3;;
49582;SDS011;36329;48.816;44.624;2022-09-09T14:26:38;7.8;;;1.5;;
49582;SDS011;36329;48.816;44.624;2022-09-09T14:29:40;2.2;;;1.3;;
49582;SDS011;36329;48.816;44.624;2022-09-09T14:32:41;3.3;;;1.1;;
49582;SDS011;36329;48.816;44.624;2022-09-09T14:35:43;5.2;;;1.6;;
49582;SDS011;36329;48.816;44.624;2022-09-09T14:38:45;4.7;;;1.4;;
49582;SDS011;36329;48.816;44.624;2022-09-09T14:41:46;4.6;;;1.4;;
49582;SDS011;36329;48.816;44.624;2022-09-09T14:44:48;5.4;;;1.4;;
49582;SDS011;36329;48.816;44.624;2022-09-09T14:47:50;4.7;;;1.4;;
49582;SDS011;36329;48.816;44.624;2022-09-09T14:50:52;5.5;;;1.3;;
49582;SDS011;36329;48.816;44.624;2022-09-09T14:53:55;1.8;;;1.1;;
49582;SDS011;36329;48.816;44.624;2022-09-09T14:56:58;4.2;;;1.1;;
49582;SDS011;36329;48.816;44.624;2022-09-09T15:00:00;3.4;;;1.3;;
49582;SDS011;36329;48.816;44.624;2022-09-09T15:03:02;2.4;;;1.3;;
49582;SDS011;36329;48.816;44.624;2022-09-09T15:06:05;6.1;;;1.6;;
49582;SDS011;36329;48.816;44.624;2022-09-09T15:09:07;5;;;1.2;;
49582;SDS011;36329;48.816;44.624;2022-09-09T15:12:08;4.9;;;1.7;;
49582;SDS011;36329;48.816;44.624;2022-09-09T15:15:10;4.4;;;1.6;;
49582;SDS011;36329;48.816;44.624;2022-09-09T15:18:11;6.1;;;1.7;;
49582;SDS011;36329;48.816;44.624;2022-09-09T15:21:16;5.3;;;1.6;;
49582;SDS011;36329;48.816;44.624;2022-09-09T15:24:20;5.1;;;2.6;;
49582;SDS011;36329;48.816;44.624;2022-09-09T15:27:21;4.1;;;2.1;;
49582;SDS011;36329;48.816;44.624;2022-09-09T15:30:23;3.5;;;1.7;;
49582;SDS011;36329;48.816;44.624;2022-09-09T15:33:24;6.1;;;1.8;;
49582;SDS011;36329;48.816;44.624;2022-09-09T15:36:26;5.8;;;2;;
49582;SDS011;36329;48.816;44.624;2022-09-09T15:39:29;4;;;1.9;;
49582;SDS011;36329;48.816;44.624;2022-09-09T15:42:31;10.2;;;2.4;;
49582;SDS011;36329;48.816;44.624;2022-09-09T15:45:33;4.6;;;2.3;;
49582;SDS011;36329;48.816;44.624;2022-09-09T15:48:34;9.2;;;2.4;;
49582;SDS011;36329;48.816;44.624;2022-09-09T15:51:37;5.4;;;2.2;;
49582;SDS011;36329;48.816;44.624;2022-09-09T15:54:40;6;;;2.2;;
49582;SDS011;36329;48.816;44.624;2022-09-09T15:57:42;7.8;;;2.6;;
49582;SDS011;36329;48.816;44.624;2022-09-09T16:00:43;7;;;1.6;;
49582;SDS011;36329;48.816;44.624;2022-09-09T16:03:45;4.8;;;1.7;;
49582;SDS011;36329;48.816;44.624;2022-09-09T16:06:47;4;;;1.6;;
49582;SDS011;36329;48.816;44.624;2022-09-09T16:09:49;3;;;1.4;;
49582;SDS011;36329;48.816;44.624;2022-09-09T16:12:50;6.2;;;1.5;;
49582;SDS011;36329;48.816;44.624;2022-09-09T16:15:53;4.2;;;1.6;;
49582;SDS011;36329;48.816;44.624;2022-09-09T16:18:55;4.4;;;1.8;;
49582;SDS011;36329;48.816;44.624;2022-09-09T16:21:58;7.6;;;1.9;;
49582;SDS011;36329;48.816;44.624;2022-09-09T16:25:00;4.1;;;1.6;;
49582;SDS011;36329;48.816;44.624;2022-09-09T16:28:02;6.8;;;1.6;;
49582;SDS011;36329;48.816;44.624;2022-09-09T16:31:04;3.2;;;1.6;;
49582;SDS011;36329;48.816;44.624;2022-09-09T16:34:05;4.3;;;1.7;;
49582;SDS011;36329;48.816;44.624;2022-09-09T16:37:07;7.3;;;2.1;;
49582;SDS011;36329;48.816;44.624;2022-09-09T16:40:09;7.4;;;1.9;;
49582;SDS011;36329;48.816;44.624;2022-09-09T16:43:11;6.4;;;2;;
49582;SDS011;36329;48.816;44.624;2022-09-09T16:46:14;8.6;;;2.8;;
49582;SDS011;36329;48.816;44.624;2022-09-09T16:49:16;9.2;;;2.6;;
49582;SDS011;36329;48.816;44.624;2022-09-09T16:52:18;9;;;3.1;;
49582;SDS011;36329;48.816;44.624;2022-09-09T16:55:20;5.5;;;2.2;;
49582;SDS011;36329;48.816;44.624;2022-09-09T16:58:22;6.5;;;2.6;;
49582;SDS011;36329;48.816;44.624;2022-09-09T17:01:24;4.3;;;1.9;;
49582;SDS011;36329;48.816;44.624;2022-09-09T17:04:27;7.3;;;2.1;;
49582;SDS011;36329;48.816;44.624;2022-09-09T17:07:29;5.8;;;2.2;;
49582;SDS011;36329;48.816;44.624;2022-09-09T17:10:30;7.3;;;1.7;;
49582;SDS011;36329;48.816;44.624;2022-09-09T17:13:32;5.9;;;1.8;;
49582;SDS011;36329;48.816;44.624;2022-09-09T17:16:33;5.2;;;1.9;;
49582;SDS011;36329;48.816;44.624;2022-09-09T17:19:35;3.8;;;2;;
49582;SDS011;36329;48.816;44.624;2022-09-09T17:22:36;5.2;;;1.7;;
49582;SDS011;36329;48.816;44.624;2022-09-09T17:25:38;5.5;;;1.7;;
49582;SDS011;36329;48.816;44.624;2022-09-09T17:28:40;7;;;2.1;;
49582;SDS011;36329;48.816;44.624;2022-09-09T17:31:43;7.1;;;2.3;;
49582;SDS011;36329;48.816;44.624;2022-09-09T17:34:45;5.2;;;1.8;;
49582;SDS011;36329;48.816;44.624;2022-09-09T17:37:47;5.7;;;1.8;;
49582;SDS011;36329;48.816;44.624;2022-09-09T17:40:48;6.1;;;1.6;;
49582;SDS011;36329;48.816;44.624;2022-09-09T17:43:50;3.8;;;1.6;;
49582;SDS011;36329;48.816;44.624;2022-09-09T17:46:52;4;;;1.6;;
49582;SDS011;36329;48.816;44.624;2022-09-09T17:49:54;5.5;;;1.4;;
49582;SDS011;36329;48.816;44.624;2022-09-09T17:52:55;4.7;;;1.3;;
49582;SDS011;36329;48.816;44.624;2022-09-09T17:56:01;4.8;;;1.5;;
49582;SDS011;36329;48.816;44.624;2022-09-09T17:59:04;3.2;;;1.3;;
49582;SDS011;36329;48.816;44.624;2022-09-09T18:02:08;3;;;1.2;;
49582;SDS011;36329;48.816;44.624;2022-09-09T18:05:10;4.5;;;1.2;;
49582;SDS011;36329;48.816;44.624;2022-09-09T18:08:12;12.4;;;1.7;;
49582;SDS011;36329;48.816;44.624;2022-09-09T18:11:13;5.5;;;1.3;;
49582;SDS011;36329;48.816;44.624;2022-09-09T18:14:16;3.8;;;1.2;;
49582;SDS011;36329;48.816;44.624;2022-09-09T18:17:20;2.1;;;1.2;;
49582;SDS011;36329;48.816;44.624;2022-09-09T18:20:21;3.3;;;1.1;;
49582;SDS011;36329;48.816;44.624;2022-09-09T18:23:23;1.9;;;1;;
49582;SDS011;36329;48.816;44.624;2022-09-09T18:26:25;3.8;;;1.2;;
49582;SDS011;36329;48.816;44.624;2022-09-09T18:29:27;3.9;;;1.1;;
49582;SDS011;36329;48.816;44.624;2022-09-09T18:32:29;3.7;;;1.1;;
49582;SDS011;36329;48.816;44.624;2022-09-09T18:35:30;4.3;;;1.3;;
49582;SDS011;36329;48.816;44.624;2022-09-09T18:38:32;4.5;;;1.2;;
49582;SDS011;36329;48.816;44.624;2022-09-09T18:41:35;2.8;;;1.1;;
49582;SDS011;36329;48.816;44.624;2022-09-09T18:44:38;4.4;;;1.1;;
49582;SDS011;36329;48.816;44.624;2022-09-09T18:47:39;3.3;;;1;;
49582;SDS011;36329;48.816;44.624;2022-09-09T18:50:41;3.3;;;1.2;;
49582;SDS011;36329;48.816;44.624;2022-09-09T18:53:44;2.8;;;1.3;;
49582;SDS011;36329;48.816;44.624;2022-09-09T18:56:50;4;;;1.2;;
49582;SDS011;36329;48.816;44.624;2022-09-09T18:59:52;4.3;;;1.6;;
49582;SDS011;36329;48.816;44.624;2022-09-09T19:02:54;3.4;;;1.3;;
49582;SDS011;36329;48.816;44.624;2022-09-09T19:06:00;3.9;;;1.4;;